createdAt,value
2022-08-16T04:46:00.793Z,994.40
2022-08-16T04:47:02.344Z,994.41
2022-08-16T04:47:56.468Z,994.41
2022-08-16T04:48:56.418Z,994.41
2022-08-16T04:49:56.425Z,994.42
2022-08-16T04:50:56.395Z,994.42
2022-08-16T04:51:56.395Z,994.43
2022-08-16T04:52:56.389Z,994.44
2022-08-16T04:53:56.367Z,994.45
2022-08-16T04:54:56.350Z,994.47
2022-08-16T04:55:56.344Z,994.48
2022-08-16T04:56:56.328Z,994.50
2022-08-16T04:57:56.338Z,994.52
2022-08-16T04:58:57.514Z,994.54
2022-08-16T04:59:56.306Z,994.55
2022-08-16T05:00:56.284Z,994.55
2022-08-16T05:01:58.937Z,994.56
2022-08-16T05:02:58.794Z,994.56
2022-08-16T05:04:00.597Z,994.57
2022-08-16T05:04:56.242Z,994.58
2022-08-16T05:05:59.938Z,994.59
2022-08-16T05:06:56.234Z,994.60
2022-08-16T05:07:58.276Z,994.60
2022-08-16T05:08:56.393Z,994.61
2022-08-16T05:09:56.191Z,994.63
2022-08-16T05:10:59.905Z,994.63
2022-08-16T05:11:57.470Z,994.64
2022-08-16T05:12:56.689Z,994.65
2022-08-16T05:13:56.153Z,994.66
2022-08-16T05:15:01.738Z,994.68
2022-08-16T05:15:56.133Z,994.68
2022-08-16T05:16:56.145Z,994.68
2022-08-16T05:17:58.749Z,994.69
2022-08-16T05:18:56.586Z,994.70
2022-08-16T05:19:57.442Z,994.69
2022-08-16T05:21:01.337Z,994.71
2022-08-16T05:21:56.066Z,994.70
2022-08-16T05:22:56.045Z,994.70
2022-08-16T05:23:58.602Z,994.69
2022-08-16T05:24:56.050Z,994.69
2022-08-16T05:25:56.019Z,994.69
2022-08-16T05:26:56.788Z,994.68
2022-08-16T05:27:56.602Z,994.69
2022-08-16T05:28:56.119Z,994.69
2022-08-16T05:29:57.808Z,994.70
2022-08-16T05:30:56.015Z,994.69
2022-08-16T05:31:55.961Z,994.69
2022-08-16T05:32:55.938Z,994.70
2022-08-16T05:33:55.941Z,994.71
2022-08-16T05:34:55.937Z,994.72
2022-08-16T05:35:56.082Z,994.72
2022-08-16T05:36:55.915Z,994.73
2022-08-16T05:37:55.895Z,994.74
2022-08-16T05:38:55.879Z,994.74
2022-08-16T05:39:55.961Z,994.75
2022-08-16T05:40:59.608Z,994.75
2022-08-16T05:41:55.851Z,994.75
2022-08-16T05:42:55.924Z,994.75
2022-08-16T05:43:59.216Z,994.76
2022-08-16T05:44:55.819Z,994.77
2022-08-16T05:45:55.819Z,994.77
2022-08-16T05:46:56.037Z,994.77
2022-08-16T05:47:59.490Z,994.77
2022-08-16T05:49:01.754Z,994.76
2022-08-16T05:49:55.768Z,994.76
2022-08-16T05:50:55.764Z,994.77
2022-08-16T05:51:55.741Z,994.78
2022-08-16T05:52:55.743Z,994.79
2022-08-16T05:53:55.715Z,994.80
2022-08-16T05:55:01.303Z,994.81
2022-08-16T05:55:55.718Z,994.81
2022-08-16T05:56:56.031Z,994.82
2022-08-16T05:57:55.680Z,994.82
2022-08-16T05:58:55.700Z,994.81
2022-08-16T05:59:59.902Z,994.81
2022-08-16T06:00:55.671Z,994.80
2022-08-16T06:01:55.732Z,994.81
2022-08-16T06:02:55.630Z,994.82
2022-08-16T06:03:55.613Z,994.83
2022-08-16T06:04:55.609Z,994.85
2022-08-16T06:05:55.612Z,994.86
2022-08-16T06:06:56.401Z,994.88
2022-08-16T06:07:59.157Z,994.89
2022-08-16T06:08:55.576Z,994.92
2022-08-16T06:09:55.555Z,994.93
2022-08-16T06:11:09.703Z,994.95
2022-08-16T06:11:55.533Z,994.95
2022-08-16T06:12:56.088Z,994.96
2022-08-16T06:13:55.569Z,994.95
2022-08-16T06:14:55.507Z,994.95
2022-08-16T06:15:55.499Z,994.94
2022-08-16T06:16:55.484Z,994.93
2022-08-16T06:17:55.481Z,994.93
2022-08-16T06:18:55.462Z,994.92
2022-08-16T06:19:55.470Z,994.94
2022-08-16T06:20:56.138Z,994.93
2022-08-16T06:21:56.080Z,994.94
2022-08-16T06:22:58.683Z,994.94
2022-08-16T06:23:55.410Z,994.94
2022-08-16T06:24:55.979Z,994.95
2022-08-16T06:25:55.397Z,994.95
2022-08-16T06:26:57.739Z,994.98
2022-08-16T06:27:57.313Z,994.98
2022-08-16T06:28:55.358Z,995.01
2022-08-16T06:29:55.361Z,995.03
2022-08-16T06:30:55.358Z,995.05
2022-08-16T06:31:55.317Z,995.06
2022-08-16T06:32:55.309Z,995.07
2022-08-16T06:33:55.299Z,995.06
2022-08-16T06:35:02.073Z,995.05
2022-08-16T06:35:59.713Z,995.05
2022-08-16T06:36:59.285Z,995.03
2022-08-16T06:37:55.291Z,995.02
2022-08-16T06:38:56.362Z,995.01
2022-08-16T06:39:55.261Z,995.00
2022-08-16T06:40:55.237Z,994.99
2022-08-16T06:41:55.205Z,994.99
2022-08-16T06:42:57.454Z,995.01
2022-08-16T06:43:55.183Z,995.00
2022-08-16T06:44:55.179Z,995.01
2022-08-16T06:45:55.195Z,995.01
2022-08-16T06:46:55.161Z,995.02
2022-08-16T06:47:56.545Z,995.02
2022-08-16T06:48:55.133Z,995.01
2022-08-16T06:49:55.124Z,995.01
2022-08-16T06:50:55.123Z,995.00
2022-08-16T06:51:55.115Z,994.99
2022-08-16T06:52:57.981Z,994.99
2022-08-16T06:53:55.075Z,994.98
2022-08-16T06:54:55.067Z,995.01
2022-08-16T06:55:55.050Z,995.00
2022-08-16T06:56:55.264Z,995.01
2022-08-16T06:57:55.029Z,995.03
2022-08-16T06:58:55.027Z,995.05
2022-08-16T06:59:58.642Z,995.08
2022-08-16T07:00:55.014Z,995.10
2022-08-16T07:01:58.541Z,995.14
2022-08-16T07:02:55.435Z,995.15
2022-08-16T07:03:57.406Z,995.19
2022-08-16T07:04:54.965Z,995.21
2022-08-16T07:05:54.940Z,995.25
2022-08-16T07:06:54.947Z,995.27
2022-08-16T07:07:55.078Z,995.28
2022-08-16T07:08:54.910Z,995.31
2022-08-16T07:09:54.904Z,995.32
2022-08-16T07:10:54.887Z,995.34
2022-08-16T07:11:54.896Z,995.33
2022-08-16T07:13:04.207Z,995.33
2022-08-16T07:14:00.194Z,995.34
2022-08-16T07:14:59.623Z,995.34
2022-08-16T07:15:54.837Z,995.33
2022-08-16T07:16:54.875Z,995.34
2022-08-16T07:17:54.810Z,995.32
2022-08-16T07:18:59.341Z,995.36
2022-08-16T07:20:29.840Z,995.34
2022-08-16T07:20:57.759Z,995.35
2022-08-16T07:21:59.613Z,995.34
2022-08-16T07:22:58.708Z,995.34
2022-08-16T07:23:57.883Z,995.35
2022-08-16T07:24:54.747Z,995.35
2022-08-16T07:25:54.725Z,995.33
2022-08-16T07:26:54.731Z,995.36
2022-08-16T07:27:54.739Z,995.35
2022-08-16T07:28:54.695Z,995.36
2022-08-16T07:29:55.508Z,995.35
2022-08-16T07:30:54.712Z,995.35
2022-08-16T07:31:54.675Z,995.35
2022-08-16T07:32:54.656Z,995.38
2022-08-16T07:33:55.000Z,995.37
2022-08-16T07:34:54.633Z,995.38
2022-08-16T07:35:54.618Z,995.40
2022-08-16T07:36:57.963Z,995.41
2022-08-16T07:37:54.597Z,995.42
2022-08-16T07:38:54.601Z,995.42
2022-08-16T07:39:54.957Z,995.42
2022-08-16T07:41:09.606Z,995.42
2022-08-16T07:41:54.573Z,995.42
2022-08-16T07:42:54.549Z,995.39
2022-08-16T07:43:54.531Z,995.40
2022-08-16T07:44:54.528Z,995.41
2022-08-16T07:45:54.527Z,995.43
2022-08-16T07:46:55.484Z,995.41
2022-08-16T07:47:54.551Z,995.41
2022-08-16T07:48:55.172Z,995.41
2022-08-16T07:49:57.875Z,995.42
2022-08-16T07:50:58.402Z,995.43
2022-08-16T07:51:56.114Z,995.46
2022-08-16T07:52:54.441Z,995.46
2022-08-16T07:54:02.454Z,995.47
2022-08-16T07:54:54.426Z,995.46
2022-08-16T07:55:54.433Z,995.48
2022-08-16T07:56:54.420Z,995.50
2022-08-16T07:58:00.688Z,995.50
2022-08-16T07:58:55.585Z,995.49
2022-08-16T07:59:57.145Z,995.48
2022-08-16T08:00:54.382Z,995.51
2022-08-16T08:01:54.353Z,995.53
2022-08-16T08:02:54.331Z,995.57
2022-08-16T08:03:54.326Z,995.58
2022-08-16T08:04:54.312Z,995.60
2022-08-16T08:05:54.299Z,995.60
2022-08-16T08:06:54.310Z,995.61
2022-08-16T08:07:54.281Z,995.63
2022-08-16T08:08:59.248Z,995.61
2022-08-16T08:09:54.261Z,995.64
2022-08-16T08:10:54.260Z,995.64
2022-08-16T08:12:01.253Z,995.65
2022-08-16T08:12:55.032Z,995.65
2022-08-16T08:13:54.219Z,995.64
2022-08-16T08:14:54.204Z,995.67
2022-08-16T08:15:54.193Z,995.69
2022-08-16T08:16:54.202Z,995.68
2022-08-16T08:17:54.172Z,995.65
2022-08-16T08:18:56.067Z,995.69
2022-08-16T08:19:54.161Z,995.70
2022-08-16T08:20:54.140Z,995.74
2022-08-16T08:21:58.985Z,995.73
2022-08-16T08:22:54.130Z,995.76
2022-08-16T08:23:54.114Z,995.77
2022-08-16T08:24:59.125Z,995.77
2022-08-16T08:25:55.804Z,995.79
2022-08-16T08:26:54.113Z,995.78
2022-08-16T08:27:57.678Z,995.76
2022-08-16T08:28:54.063Z,995.78
2022-08-16T08:30:50.268Z,995.80
2022-08-16T08:31:02.909Z,995.80
2022-08-16T08:31:54.034Z,995.80
2022-08-16T08:32:59.962Z,995.83
2022-08-16T08:33:54.004Z,995.81
2022-08-16T08:34:53.990Z,995.81
2022-08-16T08:35:53.974Z,995.81
2022-08-16T08:36:54.359Z,995.80
2022-08-16T08:37:56.276Z,995.79
2022-08-16T08:38:53.955Z,995.79
2022-08-16T08:39:55.299Z,995.79
2022-08-16T08:40:53.925Z,995.77
2022-08-16T08:41:53.915Z,995.77
2022-08-16T08:42:57.761Z,995.77
2022-08-16T08:43:53.897Z,995.76
2022-08-16T08:44:53.886Z,995.78
2022-08-16T08:45:53.878Z,995.77
2022-08-16T08:47:00.430Z,995.74
2022-08-16T08:47:54.184Z,995.74
2022-08-16T08:48:59.512Z,995.73
2022-08-16T08:49:55.523Z,995.73
2022-08-16T08:50:53.827Z,995.74
2022-08-16T08:51:53.819Z,995.74
2022-08-16T08:52:53.815Z,995.76
2022-08-16T08:53:57.919Z,995.78
2022-08-16T08:54:53.772Z,995.77
2022-08-16T08:55:58.841Z,995.77
2022-08-16T08:56:53.761Z,995.77
2022-08-16T08:57:53.756Z,995.76
2022-08-16T08:58:59.115Z,995.78
2022-08-16T08:59:53.734Z,995.77
2022-08-16T09:00:53.713Z,995.78
2022-08-16T09:01:57.441Z,995.79
2022-08-16T09:02:54.172Z,995.79
2022-08-16T09:03:53.707Z,995.80
2022-08-16T09:04:53.668Z,995.80
2022-08-16T09:05:53.669Z,995.82
2022-08-16T09:06:53.648Z,995.82
2022-08-16T09:08:01.326Z,995.85
2022-08-16T09:08:53.631Z,995.86
2022-08-16T09:10:06.447Z,995.86
2022-08-16T09:11:02.416Z,995.85
2022-08-16T09:12:06.273Z,995.83
2022-08-16T09:12:53.604Z,995.85
2022-08-16T09:13:53.577Z,995.87
2022-08-16T09:14:53.572Z,995.88
2022-08-16T09:15:53.551Z,995.89
2022-08-16T09:17:01.295Z,995.85
2022-08-16T09:17:54.941Z,995.85
2022-08-16T09:18:53.594Z,995.84
2022-08-16T09:19:57.077Z,995.84
2022-08-16T09:20:58.566Z,995.83
2022-08-16T09:21:55.298Z,995.85
2022-08-16T09:22:54.488Z,995.82
2022-08-16T09:23:53.467Z,995.85
2022-08-16T09:24:58.114Z,995.86
2022-08-16T09:25:53.458Z,995.88
2022-08-16T09:26:53.443Z,995.87
2022-08-16T09:27:58.135Z,995.86
2022-08-16T09:29:14.576Z,995.87
2022-08-16T09:30:00.396Z,995.86
2022-08-16T09:30:53.409Z,995.87
2022-08-16T09:31:53.849Z,995.88
2022-08-16T09:32:53.388Z,995.89
2022-08-16T09:33:53.358Z,995.89
2022-08-16T09:34:53.359Z,995.88
2022-08-16T09:35:54.483Z,995.90
2022-08-16T09:36:53.994Z,995.91
2022-08-16T09:38:01.065Z,995.92
2022-08-16T09:38:53.324Z,995.89
2022-08-16T09:39:53.323Z,995.89
2022-08-16T09:40:53.348Z,995.88
2022-08-16T09:41:54.362Z,995.87
2022-08-16T09:42:56.617Z,995.87
2022-08-16T09:43:59.762Z,995.86
2022-08-16T09:45:12.780Z,995.86
2022-08-16T09:45:54.609Z,995.86
2022-08-16T09:46:57.496Z,995.87
2022-08-16T09:47:56.704Z,995.86
2022-08-16T09:48:53.204Z,995.84
2022-08-16T09:49:53.190Z,995.83
2022-08-16T09:50:53.184Z,995.82
2022-08-16T09:51:53.169Z,995.82
2022-08-16T09:52:53.179Z,995.81
2022-08-16T09:53:53.693Z,995.82
2022-08-16T09:54:53.142Z,995.82
2022-08-16T09:55:53.131Z,995.83
2022-08-16T09:56:53.853Z,995.85
2022-08-16T09:57:53.389Z,995.86
2022-08-16T09:59:05.415Z,995.86
2022-08-16T09:59:56.214Z,995.86
2022-08-16T10:00:53.072Z,995.87
2022-08-16T10:01:53.072Z,995.89
2022-08-16T10:02:53.094Z,995.86
2022-08-16T10:04:02.293Z,995.84
2022-08-16T10:04:55.136Z,995.83
2022-08-16T10:05:53.036Z,995.80
2022-08-16T10:06:53.015Z,995.78
2022-08-16T10:07:56.627Z,995.78
2022-08-16T10:09:04.414Z,995.77
2022-08-16T10:09:54.803Z,995.76
2022-08-16T10:10:52.977Z,995.76
2022-08-16T10:11:52.965Z,995.74
2022-08-16T10:12:55.748Z,995.73
2022-08-16T10:13:52.958Z,995.74
2022-08-16T10:14:52.959Z,995.76
2022-08-16T10:15:55.680Z,995.74
2022-08-16T10:16:59.741Z,995.72
2022-08-16T10:18:00.670Z,995.74
2022-08-16T10:19:02.211Z,995.73
2022-08-16T10:19:52.897Z,995.77
2022-08-16T10:20:52.869Z,995.77
2022-08-16T10:21:56.270Z,995.75
2022-08-16T10:22:59.763Z,995.74
2022-08-16T10:23:53.704Z,995.75
2022-08-16T10:24:56.082Z,995.79
2022-08-16T10:27:20.843Z,995.76
2022-08-16T10:27:46.857Z,995.76
2022-08-16T10:27:56.910Z,995.75
2022-08-16T10:28:52.830Z,995.77
2022-08-16T10:30:01.218Z,995.77
2022-08-16T10:30:58.609Z,995.78
2022-08-16T10:31:53.516Z,995.76
2022-08-16T10:32:52.742Z,995.77
2022-08-16T10:33:52.755Z,995.77
2022-08-16T10:34:52.772Z,995.75
2022-08-16T10:35:52.720Z,995.74
2022-08-16T10:36:54.367Z,995.71
2022-08-16T10:37:52.960Z,995.70
2022-08-16T10:38:52.697Z,995.71
2022-08-16T10:39:52.870Z,995.71
2022-08-16T10:40:52.664Z,995.70
2022-08-16T10:41:52.660Z,995.74
2022-08-16T10:42:52.648Z,995.75
2022-08-16T10:43:52.656Z,995.74
2022-08-16T10:44:53.640Z,995.76
2022-08-16T10:46:00.413Z,995.75
2022-08-16T10:46:52.603Z,995.75
2022-08-16T10:48:00.771Z,995.77
2022-08-16T10:48:52.605Z,995.77
2022-08-16T10:49:52.576Z,995.78
2022-08-16T10:50:52.562Z,995.79
2022-08-16T10:52:03.225Z,995.79
2022-08-16T10:52:54.523Z,995.79
2022-08-16T10:53:52.555Z,995.81
2022-08-16T10:54:59.969Z,995.81
2022-08-16T10:55:57.424Z,995.80
2022-08-16T10:56:56.821Z,995.74
2022-08-16T10:57:52.496Z,995.76
2022-08-16T10:58:52.487Z,995.77
2022-08-16T10:59:58.241Z,995.75
2022-08-16T11:00:57.238Z,995.77
2022-08-16T11:02:58.780Z,995.76
2022-08-16T11:03:54.529Z,995.77
2022-08-16T11:05:08.817Z,995.81
2022-08-16T11:05:59.937Z,995.82
2022-08-16T11:07:08.615Z,995.81
2022-08-16T11:07:53.579Z,995.79
2022-08-16T11:09:21.033Z,995.82
2022-08-16T11:09:52.377Z,995.82
2022-08-16T11:11:06.567Z,995.82
2022-08-16T11:12:13.691Z,995.80
2022-08-16T11:12:52.715Z,995.81
2022-08-16T11:14:06.071Z,995.79
2022-08-16T11:15:55.599Z,995.79
2022-08-16T11:17:10.831Z,995.78
2022-08-16T11:18:48.437Z,995.80
2022-08-16T11:19:13.225Z,995.80
2022-08-16T11:20:52.259Z,995.80
2022-08-16T11:22:52.244Z,995.79
2022-08-16T11:23:58.113Z,995.81
2022-08-16T11:26:23.844Z,995.81
2022-08-16T11:27:18.346Z,995.84
2022-08-16T11:27:52.209Z,995.85
2022-08-16T11:29:52.841Z,995.89
2022-08-16T11:30:57.282Z,995.89
2022-08-16T11:31:54.009Z,995.91
2022-08-16T11:32:52.126Z,995.91
2022-08-16T11:33:52.804Z,995.92
2022-08-16T11:35:13.273Z,995.92
2022-08-16T11:36:59.390Z,995.91
2022-08-16T11:38:46.446Z,995.92
2022-08-16T11:38:57.671Z,995.92
2022-08-16T11:39:55.285Z,995.92
2022-08-16T11:40:52.815Z,995.90
2022-08-16T11:41:53.089Z,995.88
2022-08-16T11:42:52.025Z,995.86
2022-08-16T11:43:52.024Z,995.84
2022-08-16T11:44:56.373Z,995.89
2022-08-16T11:45:53.775Z,995.89
2022-08-16T11:46:51.986Z,995.89
2022-08-16T11:47:52.080Z,995.89
2022-08-16T11:48:51.974Z,995.88
2022-08-16T11:49:51.975Z,995.88
2022-08-16T11:50:51.944Z,995.86
2022-08-16T11:51:51.935Z,995.87
2022-08-16T11:52:51.940Z,995.86
2022-08-16T11:53:51.921Z,995.88
2022-08-16T11:54:53.945Z,995.89
2022-08-16T11:55:55.093Z,995.91
2022-08-16T11:56:57.485Z,995.90
2022-08-16T11:57:57.463Z,995.90
2022-08-16T11:58:56.939Z,995.91
2022-08-16T11:59:51.876Z,995.91
2022-08-16T12:00:53.293Z,995.93
2022-08-16T12:01:55.253Z,995.92
2022-08-16T12:02:51.829Z,995.92
2022-08-16T12:03:51.837Z,995.97
2022-08-16T12:04:52.165Z,995.98
2022-08-16T12:05:54.182Z,995.97
2022-08-16T12:06:53.807Z,995.99
2022-08-16T12:07:51.772Z,996.00
2022-08-16T12:08:51.801Z,996.02
2022-08-16T12:09:53.016Z,996.00
2022-08-16T12:10:51.736Z,996.00
2022-08-16T12:11:53.066Z,996.00
2022-08-16T12:12:51.740Z,995.98
2022-08-16T12:13:51.754Z,995.94
2022-08-16T12:14:59.348Z,995.93
2022-08-16T12:15:51.697Z,995.92
2022-08-16T12:16:55.511Z,995.96
2022-08-16T12:17:51.673Z,995.96
2022-08-16T12:18:51.657Z,996.00
2022-08-16T12:19:51.668Z,995.98
2022-08-16T12:20:51.643Z,995.99
2022-08-16T12:21:59.393Z,995.98
2022-08-16T12:22:51.625Z,995.99
2022-08-16T12:23:51.615Z,996.00
2022-08-16T12:24:52.564Z,996.00
2022-08-16T12:25:51.582Z,995.99
2022-08-16T12:26:51.567Z,995.99
2022-08-16T12:27:51.570Z,995.99
2022-08-16T12:28:54.648Z,996.00
2022-08-16T12:29:51.564Z,995.99
2022-08-16T12:30:51.529Z,995.96
2022-08-16T12:32:00.471Z,995.92
2022-08-16T12:32:53.217Z,995.93
2022-08-16T12:33:54.329Z,995.95
2022-08-16T12:34:53.081Z,995.98
2022-08-16T12:35:51.485Z,995.98
2022-08-16T12:36:51.466Z,995.94
2022-08-16T12:37:56.555Z,995.91
2022-08-16T12:38:53.178Z,995.95
2022-08-16T12:39:52.026Z,995.93
2022-08-16T12:40:52.965Z,995.94
2022-08-16T12:41:51.425Z,995.95
2022-08-16T12:42:52.902Z,995.93
2022-08-16T12:43:51.441Z,995.95
2022-08-16T12:44:51.404Z,995.96
2022-08-16T12:45:51.374Z,995.95
2022-08-16T12:46:51.396Z,995.93
2022-08-16T12:47:51.504Z,995.91
2022-08-16T12:48:52.571Z,995.91
2022-08-16T12:49:51.339Z,995.92
2022-08-16T12:50:51.345Z,995.96
2022-08-16T12:51:58.452Z,995.94
2022-08-16T12:52:52.350Z,995.95
2022-08-16T12:53:51.296Z,995.93
2022-08-16T12:54:55.072Z,995.93
2022-08-16T12:55:51.293Z,995.91
2022-08-16T12:56:51.261Z,995.92
2022-08-16T12:57:58.825Z,995.92
2022-08-16T12:58:52.056Z,995.93
2022-08-16T12:59:51.233Z,995.91
2022-08-16T13:00:51.440Z,995.95
2022-08-16T13:01:55.475Z,995.92
2022-08-16T13:02:51.505Z,995.91
2022-08-16T13:03:59.275Z,995.92
2022-08-16T13:04:51.192Z,995.96
2022-08-16T13:05:55.341Z,995.94
2022-08-16T13:06:52.268Z,995.95
2022-08-16T13:07:53.271Z,995.96
2022-08-16T13:08:51.144Z,995.93
2022-08-16T13:09:51.136Z,995.95
2022-08-16T13:10:52.700Z,995.91
2022-08-16T13:11:55.451Z,995.88
2022-08-16T13:12:51.103Z,995.87
2022-08-16T13:13:54.755Z,995.84
2022-08-16T13:14:51.089Z,995.83
2022-08-16T13:15:58.436Z,995.82
2022-08-16T13:16:51.070Z,995.87
2022-08-16T13:17:51.050Z,995.85
2022-08-16T13:18:52.880Z,995.83
2022-08-16T13:20:08.267Z,995.81
2022-08-16T13:20:51.045Z,995.80
2022-08-16T13:21:51.043Z,995.77
2022-08-16T13:22:50.997Z,995.79
2022-08-16T13:23:51.246Z,995.81
2022-08-16T13:24:51.269Z,995.83
2022-08-16T13:25:50.995Z,995.85
2022-08-16T13:26:53.232Z,995.84
2022-08-16T13:28:02.308Z,995.88
2022-08-16T13:28:50.949Z,995.84
2022-08-16T13:29:57.576Z,995.91
2022-08-16T13:30:50.948Z,995.89
2022-08-16T13:31:50.918Z,995.86
2022-08-16T13:32:52.207Z,995.90
2022-08-16T13:33:50.898Z,995.88
2022-08-16T13:34:50.898Z,995.87
2022-08-16T13:35:56.201Z,995.83
2022-08-16T13:36:50.865Z,995.82
2022-08-16T13:37:50.964Z,995.84
2022-08-16T13:38:50.837Z,995.81
2022-08-16T13:39:50.877Z,995.80
2022-08-16T13:40:50.821Z,995.81
2022-08-16T13:41:54.142Z,995.79
2022-08-16T13:42:50.801Z,995.79
2022-08-16T13:43:55.152Z,995.77
2022-08-16T13:44:56.585Z,995.79
2022-08-16T13:45:50.774Z,995.81
2022-08-16T13:46:50.767Z,995.82
2022-08-16T13:47:52.860Z,995.82
2022-08-16T13:48:50.772Z,995.80
2022-08-16T13:49:50.737Z,995.79
2022-08-16T13:50:52.156Z,995.75
2022-08-16T13:51:50.726Z,995.77
2022-08-16T13:52:50.849Z,995.79
2022-08-16T13:53:59.524Z,995.78
2022-08-16T13:54:50.683Z,995.75
2022-08-16T13:55:57.778Z,995.79
2022-08-16T13:56:50.688Z,995.78
2022-08-16T13:58:35.142Z,995.81
2022-08-16T13:58:54.469Z,995.80
2022-08-16T13:59:50.631Z,995.78
2022-08-16T14:00:52.804Z,995.79
2022-08-16T14:01:55.228Z,995.77
2022-08-16T14:02:50.644Z,995.75
2022-08-16T14:03:54.666Z,995.82
2022-08-16T14:05:05.011Z,995.83
2022-08-16T14:05:50.574Z,995.85
2022-08-16T14:06:50.570Z,995.82
2022-08-16T14:07:50.662Z,995.82
2022-08-16T14:08:59.296Z,995.82
2022-08-16T14:09:50.536Z,995.83
2022-08-16T14:10:51.116Z,995.81
2022-08-16T14:11:53.658Z,995.79
2022-08-16T14:12:50.494Z,995.78
2022-08-16T14:13:50.487Z,995.77
2022-08-16T14:14:53.423Z,995.78
2022-08-16T14:15:50.473Z,995.76
2022-08-16T14:16:50.488Z,995.77
2022-08-16T14:18:15.162Z,995.80
2022-08-16T14:18:50.448Z,995.78
2022-08-16T14:19:50.422Z,995.79
2022-08-16T14:20:51.183Z,995.78
2022-08-16T14:21:56.683Z,995.80
2022-08-16T14:22:52.417Z,995.79
2022-08-16T14:23:50.380Z,995.79
2022-08-16T14:24:50.374Z,995.78
2022-08-16T14:25:54.030Z,995.78
2022-08-16T14:26:50.383Z,995.76
2022-08-16T14:27:52.368Z,995.81
2022-08-16T14:28:50.343Z,995.74
2022-08-16T14:29:50.317Z,995.74
2022-08-16T14:30:50.324Z,995.72
2022-08-16T14:31:53.848Z,995.71
2022-08-16T14:32:51.432Z,995.72
2022-08-16T14:33:50.277Z,995.71
2022-08-16T14:34:50.271Z,995.71
2022-08-16T14:35:50.891Z,995.69
2022-08-16T14:36:51.988Z,995.72
2022-08-16T14:37:52.558Z,995.70
2022-08-16T14:38:50.250Z,995.71
2022-08-16T14:39:50.292Z,995.68
2022-08-16T14:40:55.106Z,995.73
2022-08-16T14:41:53.377Z,995.74
2022-08-16T14:42:50.501Z,995.73
2022-08-16T14:43:50.178Z,995.76
2022-08-16T14:44:50.171Z,995.75
2022-08-16T14:45:50.537Z,995.75
2022-08-16T14:46:50.151Z,995.77
2022-08-16T14:47:50.156Z,995.72
2022-08-16T14:48:50.142Z,995.72
2022-08-16T14:49:52.457Z,995.71
2022-08-16T14:50:50.118Z,995.70
2022-08-16T14:51:50.095Z,995.73
2022-08-16T14:52:56.149Z,995.74
2022-08-16T14:53:52.099Z,995.74
2022-08-16T14:54:50.068Z,995.72
2022-08-16T14:55:50.053Z,995.73
2022-08-16T14:56:55.031Z,995.69
2022-08-16T14:57:50.052Z,995.64
2022-08-16T14:58:50.025Z,995.68
2022-08-16T14:59:50.024Z,995.67
2022-08-16T15:00:50.773Z,995.68
2022-08-16T15:01:59.211Z,995.67
2022-08-16T15:02:50.167Z,995.69
2022-08-16T15:03:49.973Z,995.69
2022-08-16T15:04:49.971Z,995.69
2022-08-16T15:05:49.957Z,995.67
2022-08-16T15:06:49.942Z,995.69
2022-08-16T15:07:50.842Z,995.69
2022-08-16T15:08:49.928Z,995.69
2022-08-16T15:10:01.013Z,995.68
2022-08-16T15:10:49.912Z,995.69
2022-08-16T15:11:49.888Z,995.74
2022-08-16T15:12:49.890Z,995.73
2022-08-16T15:13:49.937Z,995.72
2022-08-16T15:14:49.862Z,995.72
2022-08-16T15:15:58.833Z,995.73
2022-08-16T15:16:49.850Z,995.73
2022-08-16T15:17:55.955Z,995.75
2022-08-16T15:18:49.824Z,995.76
2022-08-16T15:19:49.805Z,995.77
2022-08-16T15:20:49.809Z,995.77
2022-08-16T15:21:53.845Z,995.77
2022-08-16T15:22:49.798Z,995.78
2022-08-16T15:23:49.770Z,995.78
2022-08-16T15:24:49.761Z,995.82
2022-08-16T15:25:58.613Z,995.81
2022-08-16T15:26:49.740Z,995.81
2022-08-16T15:27:54.686Z,995.80
2022-08-16T15:28:49.744Z,995.82
2022-08-16T15:29:52.309Z,995.81
2022-08-16T15:31:00.034Z,995.84
2022-08-16T15:31:49.688Z,995.83
2022-08-16T15:32:49.699Z,995.84
2022-08-16T15:33:56.560Z,995.84
2022-08-16T15:34:49.664Z,995.86
2022-08-16T15:35:49.641Z,995.86
2022-08-16T15:36:49.633Z,995.85
2022-08-16T15:37:54.413Z,995.85
2022-08-16T15:39:02.894Z,995.83
2022-08-16T15:39:53.867Z,995.83
2022-08-16T15:40:57.555Z,995.84
2022-08-16T15:41:49.588Z,995.86
2022-08-16T15:42:54.012Z,995.86
2022-08-16T15:43:49.567Z,995.86
2022-08-16T15:44:52.867Z,995.86
2022-08-16T15:45:55.767Z,995.87
2022-08-16T15:46:56.697Z,995.88
2022-08-16T15:47:55.814Z,995.86
2022-08-16T15:48:49.518Z,995.86
2022-08-16T15:49:54.627Z,995.88
2022-08-16T15:50:49.494Z,995.86
2022-08-16T15:51:49.483Z,995.94
2022-08-16T15:52:49.496Z,995.87
2022-08-16T15:54:05.710Z,995.87
2022-08-16T15:54:52.794Z,995.83
2022-08-16T15:55:49.440Z,995.86
2022-08-16T15:56:49.434Z,995.88
2022-08-16T15:57:49.572Z,995.89
2022-08-16T15:58:55.778Z,995.90
2022-08-16T15:59:52.269Z,995.92
2022-08-16T16:00:49.422Z,995.91
2022-08-16T16:01:49.368Z,995.93
2022-08-16T16:02:49.910Z,995.91
2022-08-16T16:03:49.361Z,995.92
2022-08-16T16:04:49.345Z,995.90
2022-08-16T16:05:49.328Z,995.88
2022-08-16T16:06:49.322Z,995.89
2022-08-16T16:07:56.791Z,995.89
2022-08-16T16:08:49.313Z,995.92
2022-08-16T16:09:49.784Z,995.90
2022-08-16T16:10:54.192Z,995.93
2022-08-16T16:11:49.272Z,995.93
2022-08-16T16:12:50.211Z,995.97
2022-08-16T16:13:49.243Z,995.94
2022-08-16T16:14:49.241Z,995.95
2022-08-16T16:15:49.226Z,995.96
2022-08-16T16:16:49.227Z,995.98
2022-08-16T16:17:52.360Z,995.96
2022-08-16T16:18:49.312Z,995.97
2022-08-16T16:19:53.663Z,995.99
2022-08-16T16:20:49.192Z,995.98
2022-08-16T16:21:49.164Z,995.98
2022-08-16T16:22:49.169Z,995.97
2022-08-16T16:23:54.855Z,996.02
2022-08-16T16:24:49.177Z,996.00
2022-08-16T16:25:50.133Z,995.98
2022-08-16T16:26:49.124Z,995.97
2022-08-16T16:27:55.720Z,996.01
2022-08-16T16:29:08.510Z,996.00
2022-08-16T16:29:50.924Z,996.01
2022-08-16T16:30:49.441Z,995.97
2022-08-16T16:31:59.137Z,995.98
2022-08-16T16:32:49.089Z,995.96
2022-08-16T16:33:50.234Z,995.93
2022-08-16T16:34:49.030Z,995.95
2022-08-16T16:35:55.588Z,995.95
2022-08-16T16:36:49.047Z,995.95
2022-08-16T16:37:49.298Z,995.96
2022-08-16T16:38:48.995Z,995.97
2022-08-16T16:39:49.045Z,995.97
2022-08-16T16:40:54.189Z,995.97
2022-08-16T16:41:48.970Z,995.97
2022-08-16T16:42:48.971Z,995.96
2022-08-16T16:43:48.936Z,995.99
2022-08-16T16:44:50.935Z,995.97
2022-08-16T16:45:48.913Z,995.96
2022-08-16T16:46:56.754Z,995.96
2022-08-16T16:47:49.370Z,995.96
2022-08-16T16:48:48.891Z,995.96
2022-08-16T16:49:48.872Z,995.96
2022-08-16T16:50:48.871Z,995.96
2022-08-16T16:51:50.245Z,995.96
2022-08-16T16:52:48.846Z,995.96
2022-08-16T16:53:56.167Z,995.97
2022-08-16T16:54:48.840Z,996.00
2022-08-16T16:55:52.182Z,995.99
2022-08-16T16:56:49.620Z,995.99
2022-08-16T16:57:48.964Z,996.01
2022-08-16T16:58:53.549Z,996.04
2022-08-16T16:59:55.568Z,996.04
2022-08-16T17:00:48.826Z,996.01
2022-08-16T17:01:59.633Z,996.04
2022-08-16T17:02:49.566Z,996.07
2022-08-16T17:03:53.805Z,996.06
2022-08-16T17:04:48.728Z,996.07
2022-08-16T17:05:56.923Z,996.07
2022-08-16T17:06:53.384Z,996.07
2022-08-16T17:07:48.934Z,996.07
2022-08-16T17:08:48.692Z,996.08
2022-08-16T17:09:48.666Z,996.08
2022-08-16T17:10:49.246Z,996.10
2022-08-16T17:11:48.646Z,996.10
2022-08-16T17:12:48.649Z,996.10
2022-08-16T17:13:48.648Z,996.11
2022-08-16T17:14:48.616Z,996.12
2022-08-16T17:15:50.157Z,996.12
2022-08-16T17:16:48.604Z,996.14
2022-08-16T17:19:15.150Z,996.13
2022-08-16T17:19:23.878Z,996.15
2022-08-16T17:19:48.566Z,996.15
2022-08-16T17:20:48.551Z,996.14